Alliance, Ohio
Current Conditions -  °F | °C
As of 11:51 PM on Wednesday 26 Nov 2014 (Local Time) from KCAK Reporting Station
Scattered Clouds Scattered Clouds  
Wind Chill: 24°   Ceiling: Unl
Heat Index: 30°   Visibility: 7mi
Dew Point: 24°   Wind: 6mph
Humidity: 79%   Direction: 290°WNW
Pressure: 30.01"   Gusts: NA
Location:  40.92°N, 81.1°W
Report Text: KCAK 270451Z 29005KT 7SM SCT040 M01/M04 A3001 RMK AO2 SLP174 T10111044 400441017
Loading
Personal Weather Stations






























Interactive Weather Map New forecast layout! Learn more

10-Day Weather Forecast

Advertisements
Track Severe Weather on mobile